createdAt,value
2022-08-17T00:00:43.702Z,87.04
2022-08-17T00:03:24.175Z,88.61
2022-08-17T00:05:27.154Z,87.18
2022-08-17T00:07:29.156Z,87.21
2022-08-17T00:09:31.154Z,87.84
2022-08-17T00:11:37.210Z,88.23
2022-08-17T00:13:43.670Z,88.10
2022-08-17T00:15:45.940Z,87.14
2022-08-17T00:17:49.719Z,87.50
2022-08-17T00:19:51.984Z,87.09
2022-08-17T00:22:30.908Z,87.21
2022-08-17T00:24:18.860Z,87.12
2022-08-17T00:26:43.621Z,87.53
2022-08-17T00:28:43.181Z,87.50
2022-08-17T00:30:50.803Z,87.78
2022-08-17T00:33:14.032Z,88.23
2022-08-17T00:35:18.486Z,88.21
2022-08-17T00:37:20.481Z,87.06
2022-08-17T00:39:22.478Z,87.35
2022-08-17T00:41:26.266Z,87.77
2022-08-17T00:43:46.167Z,88.61
2022-08-17T00:45:48.686Z,87.65
2022-08-17T00:47:50.729Z,88.13
2022-08-17T00:49:52.893Z,88.08
2022-08-17T00:52:11.622Z,88.40
2022-08-17T00:54:31.143Z,89.23
2022-08-17T00:56:56.971Z,88.69
2022-08-17T00:58:59.012Z,88.22
2022-08-17T01:01:03.878Z,88.45
2022-08-17T01:03:10.278Z,88.22
2022-08-17T01:05:21.628Z,89.03
2022-08-17T01:07:24.227Z,88.26
2022-08-17T01:09:26.246Z,88.19
2022-08-17T01:11:29.844Z,88.17
2022-08-17T01:13:40.693Z,88.79
2022-08-17T01:15:49.010Z,88.25
2022-08-17T01:17:51.000Z,88.03
2022-08-17T01:19:52.989Z,88.52
2022-08-17T01:21:54.855Z,88.79
2022-08-17T01:23:56.904Z,88.21
2022-08-17T01:26:01.844Z,88.69
2022-08-17T01:28:04.229Z,88.58
2022-08-17T01:30:58.954Z,88.33
2022-08-17T01:32:31.636Z,87.97
2022-08-17T01:34:42.909Z,88.32
2022-08-17T01:36:52.672Z,88.60
2022-08-17T01:38:55.099Z,88.79
2022-08-17T01:41:01.018Z,88.66
2022-08-17T01:43:15.234Z,89.15
2022-08-17T01:45:27.141Z,89.31
2022-08-17T01:47:29.900Z,88.47
2022-08-17T01:49:33.182Z,88.45
2022-08-17T01:51:35.242Z,88.55
2022-08-17T01:53:42.540Z,89.27
2022-08-17T01:55:56.919Z,89.06
2022-08-17T01:57:58.941Z,88.69
2022-08-17T02:00:00.998Z,88.73
2022-08-17T02:02:04.922Z,88.80
2022-08-17T02:04:08.441Z,88.45
2022-08-17T02:06:27.131Z,88.70
2022-08-17T02:08:39.244Z,88.89
2022-08-17T02:10:55.114Z,88.90
2022-08-17T02:12:57.040Z,90.84
2022-08-17T02:14:59.087Z,89.08
2022-08-17T02:17:01.117Z,89.20
2022-08-17T02:19:03.134Z,89.07
2022-08-17T02:21:05.439Z,88.58
2022-08-17T02:23:09.004Z,89.25
2022-08-17T02:25:12.543Z,88.52
2022-08-17T02:27:14.568Z,89.08
2022-08-17T02:29:16.609Z,89.10
2022-08-17T02:31:18.608Z,89.51
2022-08-17T02:33:21.153Z,88.73
2022-08-17T02:35:23.343Z,89.00
2022-08-17T02:37:26.733Z,88.76
2022-08-17T02:39:28.822Z,88.91
2022-08-17T02:41:31.101Z,89.08
2022-08-17T02:43:33.136Z,89.04
2022-08-17T02:45:35.290Z,89.36
2022-08-17T02:47:37.941Z,89.28
2022-08-17T02:49:39.877Z,90.57
2022-08-17T02:51:41.895Z,89.19
2022-08-17T02:53:43.871Z,89.50
2022-08-17T02:55:45.930Z,88.97
2022-08-17T02:57:48.134Z,89.21
2022-08-17T02:59:50.533Z,89.11
2022-08-17T03:01:53.733Z,89.73
2022-08-17T03:03:56.437Z,89.61
2022-08-17T03:05:58.673Z,89.58
2022-08-17T03:08:00.729Z,89.58
2022-08-17T03:10:02.742Z,88.97
2022-08-17T03:12:12.968Z,89.52
2022-08-17T03:14:14.993Z,89.28
2022-08-17T03:16:17.024Z,88.93
2022-08-17T03:18:25.387Z,89.16
2022-08-17T03:20:30.425Z,89.46
2022-08-17T03:22:39.808Z,89.83
2022-08-17T03:24:42.565Z,89.50
2022-08-17T03:26:44.737Z,89.77
2022-08-17T03:28:46.749Z,89.84
2022-08-17T03:30:49.054Z,89.60
2022-08-17T03:32:52.898Z,89.63
2022-08-17T03:35:00.307Z,89.90
2022-08-17T03:37:02.323Z,89.56
2022-08-17T03:39:04.899Z,89.78
2022-08-17T03:41:07.066Z,91.22
2022-08-17T03:43:09.432Z,89.82
2022-08-17T03:45:15.524Z,89.47
2022-08-17T03:47:36.334Z,89.71
2022-08-17T03:49:56.953Z,89.81
2022-08-17T03:52:17.714Z,89.85
2022-08-17T03:54:38.434Z,89.41
2022-08-17T03:56:43.524Z,89.51
2022-08-17T03:58:45.666Z,89.01
2022-08-17T04:00:48.448Z,89.72
2022-08-17T04:02:50.743Z,89.35
2022-08-17T04:04:53.904Z,89.61
2022-08-17T04:06:56.334Z,89.68
2022-08-17T04:08:58.384Z,89.81
2022-08-17T04:11:01.049Z,89.54
2022-08-17T04:13:03.036Z,91.05
2022-08-17T04:15:06.758Z,89.99
2022-08-17T04:17:08.753Z,89.73
2022-08-17T04:19:10.754Z,89.56
2022-08-17T04:21:12.820Z,89.92
2022-08-17T04:23:17.632Z,90.32
2022-08-17T04:25:19.707Z,89.60
2022-08-17T04:27:21.766Z,89.94
2022-08-17T04:29:24.868Z,89.69
2022-08-17T04:31:27.424Z,89.58
2022-08-17T04:33:31.069Z,89.38
2022-08-17T04:35:37.008Z,89.89
2022-08-17T04:37:38.997Z,89.38
2022-08-17T04:40:04.104Z,89.29
2022-08-17T04:42:17.101Z,89.36
2022-08-17T04:44:37.088Z,89.00
2022-08-17T04:46:40.067Z,89.06
2022-08-17T04:48:45.885Z,89.12
2022-08-17T04:50:49.858Z,88.95
2022-08-17T04:52:52.002Z,88.80
2022-08-17T04:54:54.098Z,88.60
2022-08-17T04:56:56.103Z,88.38
2022-08-17T04:59:01.356Z,88.17
2022-08-17T05:01:03.959Z,87.98
2022-08-17T05:03:06.310Z,87.91
2022-08-17T05:05:08.822Z,87.71
2022-08-17T05:07:11.894Z,87.60
2022-08-17T05:09:13.957Z,87.60
2022-08-17T05:11:16.009Z,87.50
2022-08-17T05:13:25.349Z,87.56
2022-08-17T05:15:28.434Z,87.22
2022-08-17T05:17:35.063Z,87.03
2022-08-17T05:19:37.348Z,87.20
2022-08-17T05:21:39.459Z,86.99
2022-08-17T05:23:43.000Z,87.33
2022-08-17T05:25:48.842Z,87.15
2022-08-17T05:27:53.268Z,86.99
2022-08-17T05:29:55.430Z,86.90
2022-08-17T05:31:57.693Z,86.79
2022-08-17T05:33:59.851Z,86.78
2022-08-17T05:36:03.905Z,86.76
2022-08-17T05:38:06.071Z,86.94
2022-08-17T05:40:09.651Z,87.07
2022-08-17T05:42:11.722Z,86.76
2022-08-17T05:44:13.810Z,86.70
2022-08-17T05:46:32.014Z,87.04
2022-08-17T05:48:47.258Z,86.69
2022-08-17T05:51:08.954Z,86.71
2022-08-17T05:53:22.418Z,86.92
2022-08-17T05:56:01.655Z,86.97
2022-08-17T05:58:37.074Z,86.98
2022-08-17T06:01:00.614Z,86.51
2022-08-17T06:03:31.272Z,86.97
2022-08-17T06:06:07.873Z,86.90
2022-08-17T06:08:39.817Z,86.74
2022-08-17T06:10:55.550Z,86.43
2022-08-17T06:13:49.791Z,86.69
2022-08-17T06:15:55.323Z,86.29
2022-08-17T06:18:07.050Z,86.22
2022-08-17T06:20:14.550Z,86.10
2022-08-17T06:22:19.930Z,86.23
2022-08-17T06:24:37.866Z,86.22
2022-08-17T06:26:43.221Z,86.24
2022-08-17T06:29:18.829Z,85.97
2022-08-17T06:31:29.223Z,86.00
2022-08-17T06:33:36.612Z,86.08
2022-08-17T06:35:48.002Z,86.02
2022-08-17T06:38:36.929Z,85.96
2022-08-17T06:40:51.602Z,85.52
2022-08-17T06:43:21.598Z,85.42
2022-08-17T06:45:31.402Z,85.20
2022-08-17T06:48:07.427Z,85.10
2022-08-17T06:50:42.989Z,84.90
2022-08-17T06:53:00.046Z,84.87
2022-08-17T06:55:18.645Z,84.87
2022-08-17T06:57:28.351Z,84.85
2022-08-17T06:59:55.777Z,84.55
2022-08-17T07:02:04.372Z,84.47
2022-08-17T07:04:16.977Z,84.45
2022-08-17T07:06:22.106Z,84.42
2022-08-17T07:08:37.999Z,84.07
2022-08-17T07:10:55.155Z,84.08
2022-08-17T07:13:03.343Z,83.78
2022-08-17T07:15:25.125Z,83.44
2022-08-17T07:17:46.522Z,82.94
2022-08-17T07:19:51.022Z,82.96
2022-08-17T07:22:50.545Z,81.46
2022-08-17T07:25:10.040Z,81.70
2022-08-17T07:27:27.604Z,81.60
2022-08-17T07:29:34.291Z,81.74
2022-08-17T07:31:36.280Z,81.74
2022-08-17T07:33:39.470Z,81.68
2022-08-17T07:35:44.127Z,81.55
2022-08-17T07:37:55.714Z,81.12
2022-08-17T07:40:14.753Z,80.91
2022-08-17T07:42:18.596Z,80.69
2022-08-17T07:44:20.612Z,80.06
2022-08-17T07:46:48.061Z,79.50
2022-08-17T07:49:15.407Z,77.91
2022-08-17T07:51:25.327Z,78.10
2022-08-17T07:53:27.592Z,78.24
2022-08-17T07:55:32.819Z,77.36
2022-08-17T07:57:35.968Z,75.95
2022-08-17T07:59:43.472Z,75.60
2022-08-17T08:01:58.398Z,74.54
2022-08-17T08:04:00.512Z,75.88
2022-08-17T08:06:04.773Z,75.40
2022-08-17T08:08:25.651Z,73.05
2022-08-17T08:10:45.290Z,71.50
2022-08-17T08:12:48.599Z,69.75
2022-08-17T08:15:19.818Z,70.25
2022-08-17T08:17:26.166Z,69.19
2022-08-17T08:19:29.462Z,68.70
2022-08-17T08:21:49.390Z,64.96
2022-08-17T08:24:55.376Z,63.09
2022-08-17T08:27:38.982Z,64.00
2022-08-17T08:30:05.376Z,61.80
2022-08-17T08:32:20.267Z,62.05
2022-08-17T08:35:02.290Z,61.70
2022-08-17T08:37:49.413Z,60.24
2022-08-17T08:40:32.307Z,61.33
2022-08-17T08:42:50.710Z,60.14
2022-08-17T08:45:07.525Z,60.73
2022-08-17T08:47:20.950Z,60.51
2022-08-17T08:50:03.262Z,58.56
2022-08-17T08:52:10.993Z,61.11
2022-08-17T08:54:46.379Z,57.78
2022-08-17T08:57:27.799Z,55.76
2022-08-17T09:00:05.661Z,55.25
2022-08-17T09:02:41.076Z,54.33
2022-08-17T09:05:41.712Z,53.36
2022-08-17T09:08:14.839Z,52.45
2022-08-17T09:10:25.639Z,52.48
2022-08-17T09:12:41.749Z,54.01
2022-08-17T09:15:10.842Z,52.06
2022-08-17T09:17:19.455Z,51.07
2022-08-17T09:19:56.025Z,51.25
2022-08-17T09:22:47.619Z,51.07
2022-08-17T09:25:00.960Z,50.08
2022-08-17T09:27:04.805Z,52.51
2022-08-17T09:29:10.068Z,51.38
2022-08-17T09:31:17.466Z,48.94
2022-08-17T09:33:26.138Z,46.38
2022-08-17T09:35:37.382Z,45.65
2022-08-17T09:38:29.213Z,46.10
2022-08-17T09:41:09.119Z,46.63
2022-08-17T09:43:47.047Z,46.27
2022-08-17T09:46:04.282Z,44.00
2022-08-17T09:48:29.312Z,42.38
2022-08-17T09:51:04.669Z,42.62
2022-08-17T09:53:08.353Z,45.12
2022-08-17T09:55:10.311Z,40.38
2022-08-17T09:57:31.455Z,39.73
2022-08-17T10:00:20.525Z,37.54
2022-08-17T10:02:59.394Z,36.66
2022-08-17T10:05:09.746Z,37.46
2022-08-17T10:07:28.866Z,36.39
2022-08-17T10:09:57.657Z,34.99
2022-08-17T10:12:20.127Z,32.69
2022-08-17T10:14:44.513Z,31.59
2022-08-17T10:17:02.275Z,30.39
2022-08-17T10:19:18.679Z,30.08
2022-08-17T10:21:39.001Z,32.60
2022-08-17T10:23:59.720Z,35.41
2022-08-17T10:26:19.087Z,29.58
2022-08-17T10:28:29.075Z,28.31
2022-08-17T10:30:33.322Z,29.51
2022-08-17T10:32:57.428Z,27.30
2022-08-17T10:35:26.008Z,26.32
2022-08-17T10:37:36.820Z,26.37
2022-08-17T10:40:07.413Z,26.54
2022-08-17T10:42:59.209Z,26.70
2022-08-17T10:45:28.132Z,25.82
2022-08-17T10:48:23.045Z,24.87
2022-08-17T10:50:55.830Z,24.29
2022-08-17T10:52:57.864Z,26.26
2022-08-17T10:55:06.377Z,25.12
2022-08-17T10:57:39.380Z,23.92
2022-08-17T10:59:42.052Z,26.18
2022-08-17T11:02:01.362Z,22.54
2022-08-17T11:04:18.854Z,23.45
2022-08-17T11:06:40.875Z,23.31
2022-08-17T11:09:08.094Z,23.08
2022-08-17T11:11:15.199Z,23.30
2022-08-17T11:13:27.722Z,23.74
2022-08-17T11:16:21.352Z,22.91
2022-08-17T11:18:26.388Z,23.81
2022-08-17T11:21:02.771Z,22.19
2022-08-17T11:23:45.081Z,21.51
2022-08-17T11:25:52.462Z,22.13
2022-08-17T11:28:13.538Z,22.30
2022-08-17T11:30:36.082Z,22.57
2022-08-17T11:32:48.842Z,22.23
2022-08-17T11:35:22.471Z,21.35
2022-08-17T11:37:41.919Z,21.79
2022-08-17T11:39:49.866Z,21.61
2022-08-17T11:42:28.013Z,20.53
2022-08-17T11:44:42.753Z,20.81
2022-08-17T11:47:38.910Z,20.50
2022-08-17T11:50:15.464Z,20.47
2022-08-17T11:52:48.586Z,20.59
2022-08-17T11:54:51.025Z,21.22
2022-08-17T11:56:53.086Z,21.15
2022-08-17T11:58:55.139Z,20.79
2022-08-17T12:01:02.435Z,20.14
2022-08-17T12:03:33.019Z,19.59
2022-08-17T12:05:35.196Z,21.42
2022-08-17T12:07:43.731Z,19.60
2022-08-17T12:09:49.594Z,19.25
2022-08-17T12:12:13.797Z,19.37
2022-08-17T12:14:45.044Z,19.61
2022-08-17T12:17:06.062Z,19.65
2022-08-17T12:19:19.527Z,18.97
2022-08-17T12:21:48.947Z,19.07
2022-08-17T12:24:29.438Z,19.43
2022-08-17T12:26:34.624Z,19.91
2022-08-17T12:28:38.872Z,20.16
2022-08-17T12:30:40.860Z,20.58
2022-08-17T12:32:46.126Z,21.03
2022-08-17T12:34:49.792Z,20.74
2022-08-17T12:36:59.944Z,20.46
2022-08-17T12:39:12.778Z,20.43
2022-08-17T12:41:34.886Z,20.21
2022-08-17T12:43:36.906Z,20.89
2022-08-17T12:45:39.800Z,21.21
2022-08-17T12:47:42.501Z,21.28
2022-08-17T12:49:48.281Z,21.93
2022-08-17T12:51:51.305Z,22.02
2022-08-17T12:53:55.113Z,22.24
2022-08-17T12:55:58.736Z,22.53
2022-08-17T12:58:01.759Z,23.44
2022-08-17T13:00:25.927Z,24.07
2022-08-17T13:02:45.532Z,24.37
2022-08-17T13:04:47.570Z,25.03
2022-08-17T13:06:51.838Z,24.65
2022-08-17T13:09:20.442Z,23.69
2022-08-17T13:11:24.688Z,23.03
2022-08-17T13:13:30.465Z,22.69
2022-08-17T13:15:44.404Z,22.06
2022-08-17T13:18:04.105Z,20.99
2022-08-17T13:20:06.808Z,21.01
2022-08-17T13:22:11.699Z,21.01
2022-08-17T13:24:16.982Z,20.14
2022-08-17T13:26:18.992Z,20.55
2022-08-17T13:28:35.548Z,20.14
2022-08-17T13:30:38.477Z,19.50
2022-08-17T13:32:43.992Z,19.74
2022-08-17T13:35:12.537Z,19.68
2022-08-17T13:37:26.982Z,19.57
2022-08-17T13:39:29.067Z,19.87
2022-08-17T13:41:37.008Z,19.70
2022-08-17T13:43:48.572Z,19.74
2022-08-17T13:45:51.346Z,20.41
2022-08-17T13:48:08.650Z,20.22
2022-08-17T13:50:21.243Z,20.59
2022-08-17T13:52:39.011Z,20.03
2022-08-17T13:54:41.043Z,19.80
2022-08-17T13:57:02.756Z,18.85
2022-08-17T13:59:14.062Z,18.42
2022-08-17T14:01:53.623Z,18.31
2022-08-17T14:03:56.900Z,17.75
2022-08-17T14:05:58.888Z,17.42
2022-08-17T14:08:06.524Z,17.13
2022-08-17T14:10:17.496Z,17.02
2022-08-17T14:12:25.108Z,16.58
2022-08-17T14:14:27.147Z,16.59
2022-08-17T14:16:29.666Z,16.30
2022-08-17T14:18:56.310Z,16.69
2022-08-17T14:20:56.698Z,16.11
2022-08-17T14:22:58.761Z,16.37
2022-08-17T14:25:01.798Z,15.85
2022-08-17T14:27:05.058Z,15.93
2022-08-17T14:29:12.613Z,16.20
2022-08-17T14:31:19.278Z,16.03
2022-08-17T14:33:22.746Z,15.86
2022-08-17T14:35:25.029Z,15.73
2022-08-17T14:37:28.235Z,16.02
2022-08-17T14:39:30.299Z,15.21
2022-08-17T14:41:32.422Z,15.23
2022-08-17T14:43:35.367Z,15.43
2022-08-17T14:45:37.391Z,15.43
2022-08-17T14:47:40.511Z,15.42
2022-08-17T14:49:42.525Z,14.91
2022-08-17T14:51:44.795Z,14.79
2022-08-17T14:53:48.306Z,15.09
2022-08-17T14:55:51.347Z,14.95
2022-08-17T14:57:53.476Z,15.20
2022-08-17T14:59:55.743Z,15.06
2022-08-17T15:01:58.568Z,15.25
2022-08-17T15:04:01.094Z,15.93
2022-08-17T15:06:03.134Z,16.05
2022-08-17T15:08:05.727Z,15.78
2022-08-17T15:10:09.130Z,16.23
2022-08-17T15:12:18.401Z,15.67
2022-08-17T15:14:20.667Z,16.42
2022-08-17T15:16:22.722Z,17.03
2022-08-17T15:18:25.147Z,17.12
2022-08-17T15:20:29.638Z,16.75
2022-08-17T15:22:31.719Z,17.15
2022-08-17T15:24:33.813Z,17.39
2022-08-17T15:26:37.719Z,17.03
2022-08-17T15:28:39.717Z,17.26
2022-08-17T15:30:45.113Z,16.91
2022-08-17T15:32:54.230Z,16.46
2022-08-17T15:34:58.468Z,17.03
2022-08-17T15:37:00.512Z,16.95
2022-08-17T15:39:03.140Z,16.58
2022-08-17T15:41:09.158Z,16.53
2022-08-17T15:43:15.728Z,16.83
2022-08-17T15:45:17.772Z,17.54
2022-08-17T15:47:19.766Z,17.73
2022-08-17T15:49:21.953Z,18.28
2022-08-17T15:51:32.885Z,18.11
2022-08-17T15:53:35.126Z,18.00
2022-08-17T15:55:38.430Z,18.34
2022-08-17T15:57:40.683Z,18.64
2022-08-17T15:59:44.520Z,19.03
2022-08-17T16:03:01.456Z,18.92
2022-08-17T16:04:29.909Z,19.56
2022-08-17T16:06:32.821Z,20.05
2022-08-17T16:08:35.557Z,20.09
2022-08-17T16:10:37.588Z,19.86
2022-08-17T16:12:39.662Z,20.53
2022-08-17T16:14:41.707Z,21.04
2022-08-17T16:16:43.684Z,21.39
2022-08-17T16:18:45.699Z,21.22
2022-08-17T16:20:56.097Z,22.43
2022-08-17T16:22:58.115Z,22.88
2022-08-17T16:25:02.114Z,24.01
2022-08-17T16:27:04.339Z,24.28
2022-08-17T16:29:14.695Z,25.30
2022-08-17T16:31:16.743Z,25.28
2022-08-17T16:33:18.772Z,25.85
2022-08-17T16:35:22.581Z,26.32
2022-08-17T16:37:24.793Z,26.23
2022-08-17T16:39:29.103Z,25.74
2022-08-17T16:41:44.380Z,27.08
2022-08-17T16:43:49.845Z,27.23
2022-08-17T16:45:52.338Z,27.12
2022-08-17T16:47:54.677Z,27.76
2022-08-17T16:49:56.754Z,27.58
2022-08-17T16:52:03.388Z,28.65
2022-08-17T16:54:06.132Z,28.78
2022-08-17T16:56:08.120Z,29.58
2022-08-17T16:58:10.191Z,30.53
2022-08-17T17:00:13.737Z,30.96
2022-08-17T17:02:23.722Z,30.51
2022-08-17T17:04:26.588Z,31.06
2022-08-17T17:06:50.017Z,32.08
2022-08-17T17:09:01.139Z,32.31
2022-08-17T17:11:26.177Z,32.86
2022-08-17T17:13:51.851Z,33.02
2022-08-17T17:15:59.609Z,32.88
2022-08-17T17:18:06.139Z,33.09
2022-08-17T17:20:19.709Z,33.46
2022-08-17T17:22:33.422Z,34.20
2022-08-17T17:24:50.632Z,34.07
2022-08-17T17:27:08.212Z,34.52
2022-08-17T17:29:20.273Z,34.74
2022-08-17T17:31:25.194Z,33.39
2022-08-17T17:33:58.395Z,34.74
2022-08-17T17:36:06.790Z,34.71
2022-08-17T17:38:15.450Z,35.73
2022-08-17T17:40:42.116Z,36.80
2022-08-17T17:42:44.292Z,36.58
2022-08-17T17:44:54.398Z,37.77
2022-08-17T17:47:02.071Z,37.79
2022-08-17T17:49:05.326Z,36.35
2022-08-17T17:52:06.887Z,38.00
2022-08-17T17:54:06.104Z,38.03
2022-08-17T17:56:45.181Z,38.71
2022-08-17T17:58:55.752Z,39.88
2022-08-17T18:01:30.086Z,39.73
2022-08-17T18:04:25.616Z,39.73
2022-08-17T18:07:00.310Z,40.28
2022-08-17T18:09:08.738Z,39.55
2022-08-17T18:11:25.145Z,40.84
2022-08-17T18:13:53.635Z,41.10
2022-08-17T18:15:56.113Z,40.31
2022-08-17T18:18:17.244Z,41.93
2022-08-17T18:20:20.370Z,42.22
2022-08-17T18:22:38.130Z,41.02
2022-08-17T18:24:42.812Z,41.77
2022-08-17T18:26:50.652Z,41.30
2022-08-17T18:28:54.327Z,40.94
2022-08-17T18:31:14.832Z,43.44
2022-08-17T18:33:24.628Z,43.36
2022-08-17T18:35:30.305Z,43.07
2022-08-17T18:37:51.288Z,44.91
2022-08-17T18:39:53.675Z,44.04
2022-08-17T18:41:58.264Z,43.33
2022-08-17T18:44:03.896Z,44.78
2022-08-17T18:46:28.321Z,45.72
2022-08-17T18:48:59.467Z,45.78
2022-08-17T18:51:42.383Z,45.85
2022-08-17T18:53:44.964Z,44.59
2022-08-17T18:55:47.001Z,45.10
2022-08-17T18:58:01.872Z,45.93
2022-08-17T19:00:31.777Z,46.62
2022-08-17T19:02:45.044Z,44.74
2022-08-17T19:05:08.043Z,46.50
2022-08-17T19:07:24.642Z,47.43
2022-08-17T19:09:36.006Z,47.43
2022-08-17T19:11:37.996Z,45.69
2022-08-17T19:13:56.831Z,47.80
2022-08-17T19:16:22.568Z,48.66
2022-08-17T19:18:36.004Z,48.72
2022-08-17T19:20:42.684Z,48.02
2022-08-17T19:23:00.383Z,48.78
2022-08-17T19:25:12.609Z,49.10
2022-08-17T19:27:34.718Z,49.39
2022-08-17T19:29:55.695Z,50.15
2022-08-17T19:31:58.741Z,49.04
2022-08-17T19:34:01.576Z,48.25
2022-08-17T19:36:07.807Z,50.59
2022-08-17T19:38:47.647Z,51.23
2022-08-17T19:41:11.993Z,51.50
2022-08-17T19:43:48.064Z,52.14
2022-08-17T19:46:16.769Z,51.55
2022-08-17T19:48:52.219Z,52.30
2022-08-17T19:51:04.603Z,52.31
2022-08-17T19:53:18.636Z,52.18
2022-08-17T19:55:49.052Z,51.37
2022-08-17T19:58:56.781Z,52.88
2022-08-17T20:00:58.861Z,51.23
2022-08-17T20:03:16.356Z,53.36
2022-08-17T20:05:24.919Z,53.31
2022-08-17T20:08:08.048Z,53.52
2022-08-17T20:10:26.105Z,54.12
2022-08-17T20:12:31.947Z,53.90
2022-08-17T20:14:53.469Z,54.41
2022-08-17T20:17:02.333Z,52.84
2022-08-17T20:19:17.939Z,53.95
2022-08-17T20:21:41.470Z,54.51
2022-08-17T20:24:18.615Z,54.40
2022-08-17T20:26:49.079Z,55.13
2022-08-17T20:29:37.807Z,54.51
2022-08-17T20:31:57.601Z,55.95
2022-08-17T20:34:33.604Z,56.23
2022-08-17T20:36:39.240Z,54.40
2022-08-17T20:38:51.473Z,56.55
2022-08-17T20:40:57.455Z,55.05
2022-08-17T20:42:59.730Z,54.76
2022-08-17T20:45:20.660Z,57.39
2022-08-17T20:47:34.158Z,57.51
2022-08-17T20:50:11.866Z,57.61
2022-08-17T20:52:34.313Z,57.14
2022-08-17T20:54:54.677Z,58.43
2022-08-17T20:56:58.658Z,56.75
2022-08-17T20:59:01.470Z,57.49
2022-08-17T21:01:20.430Z,58.83
2022-08-17T21:03:26.640Z,57.52
2022-08-17T21:05:53.491Z,59.57
2022-08-17T21:08:28.229Z,60.90
2022-08-17T21:10:35.641Z,59.34
2022-08-17T21:12:55.725Z,60.12
2022-08-17T21:15:00.917Z,59.10
2022-08-17T21:17:43.650Z,61.77
2022-08-17T21:20:20.148Z,61.16
2022-08-17T21:23:40.410Z,62.62
2022-08-17T21:26:38.976Z,61.99
2022-08-17T21:29:31.967Z,62.56
2022-08-17T21:32:09.714Z,63.00
2022-08-17T21:34:39.801Z,63.43
2022-08-17T21:36:43.682Z,61.78
2022-08-17T21:38:48.974Z,62.96
2022-08-17T21:40:53.128Z,64.23
2022-08-17T21:42:58.346Z,64.01
2022-08-17T21:45:18.045Z,65.05
2022-08-17T21:47:23.742Z,63.11
2022-08-17T21:49:27.089Z,62.90
2022-08-17T21:51:29.265Z,62.86
2022-08-17T21:53:58.242Z,65.60
2022-08-17T21:56:00.383Z,62.48
2022-08-17T21:58:14.345Z,64.75
2022-08-17T22:00:25.787Z,66.54
2022-08-17T22:02:32.519Z,65.24
2022-08-17T22:04:41.615Z,65.70
2022-08-17T22:06:57.386Z,66.35
2022-08-17T22:09:13.161Z,67.03
2022-08-17T22:11:17.021Z,64.22
2022-08-17T22:13:23.093Z,67.06
2022-08-17T22:15:25.075Z,65.64
2022-08-17T22:17:41.218Z,68.31
2022-08-17T22:20:15.942Z,67.04
2022-08-17T22:23:04.177Z,68.27
2022-08-17T22:25:07.955Z,66.28
2022-08-17T22:27:11.613Z,67.77
2022-08-17T22:29:53.220Z,69.51
2022-08-17T22:31:59.125Z,66.16
2022-08-17T22:34:03.756Z,67.65
2022-08-17T22:36:33.612Z,70.30
2022-08-17T22:38:35.676Z,68.72
2022-08-17T22:40:38.128Z,67.79
2022-08-17T22:42:47.366Z,70.31
2022-08-17T22:44:50.710Z,68.24
2022-08-17T22:47:16.338Z,71.59
2022-08-17T22:49:26.722Z,70.91
2022-08-17T22:51:30.336Z,68.00
2022-08-17T22:53:53.773Z,68.75
2022-08-17T22:56:15.114Z,68.83
2022-08-17T22:58:38.971Z,69.81
2022-08-17T23:00:43.915Z,70.43
2022-08-17T23:03:13.699Z,72.13
2022-08-17T23:05:18.907Z,68.63
2022-08-17T23:07:21.517Z,69.33
2022-08-17T23:09:23.488Z,73.33
2022-08-17T23:11:36.608Z,71.96
2022-08-17T23:13:50.002Z,70.44
2022-08-17T23:15:52.012Z,74.95
2022-08-17T23:17:54.182Z,71.07
2022-08-17T23:19:57.113Z,72.24
2022-08-17T23:21:59.522Z,74.37
2022-08-17T23:24:01.573Z,72.94
2022-08-17T23:26:03.723Z,72.26
2022-08-17T23:28:06.622Z,72.26
2022-08-17T23:30:10.817Z,72.46
2022-08-17T23:32:15.107Z,71.88
2022-08-17T23:34:18.550Z,71.77
2022-08-17T23:36:21.152Z,72.00
2022-08-17T23:38:25.069Z,75.40
2022-08-17T23:40:27.740Z,72.17
2022-08-17T23:42:29.699Z,75.81
2022-08-17T23:44:32.735Z,72.80
2022-08-17T23:46:34.904Z,72.99
2022-08-17T23:48:37.476Z,72.89
2022-08-17T23:50:39.574Z,72.81
2022-08-17T23:52:46.727Z,76.18
2022-08-17T23:54:48.843Z,74.38
2022-08-17T23:56:50.940Z,74.40
2022-08-17T23:58:58.583Z,75.63
